KOSH Airport Information

Runway Information
Runway 04 Length 3424 ft width 75 ft
Elevation 790 ft Threshold 0 ft Heading 45
Runway 22 Length 3424 ft Width 75 ft
Elevation 775 ft Threshold 0 ft Heading 225
Runway 09 Length 6178 ft width 150 ft
Elevation 797 ft Threshold 0 ft Heading 91
Runway 27 Length 6178 ft Width 150 ft
Elevation 775 ft Threshold 0 ft Heading 271
Runway 13 Length 3060 ft width 75 ft
Elevation 781 ft Threshold 0 ft Heading 129
Runway 31 Length 3060 ft Width 75 ft
Elevation 781 ft Threshold 0 ft Heading 309
Runway 18 Length 8002 ft width 150 ft
Elevation 789 ft Threshold 0 ft Heading 181
Runway 36 Length 8002 ft Width 150 ft
Elevation 808 ft Threshold 0 ft Heading 1
Airport Frequencies
Type ATIS Name ATIS Frequency 125.9 MHZ
Type CNTR Name CHICAGO CN Frequency 127 MHZ
Type CTAF Name CTAF Frequency 118.5 MHZ
Type GND Name GND Frequency 121.9 MHZ
Type RDO Name GREEN BAY Frequency 122.25 MHZ
Type TWR Name OSHKOSH TW Frequency 118.5 MHZ
Type UNIC Name UNICOM Frequency 122.95 MHZ
Airport Navaids
Type NDB Name Pober Frequency 395 KHZ
Type VORTAC Name Oshkosh Frequency 111800 KHZ
Airport Weather Information & NOTAM
ADDS - METARS form results

(1417 UTC 25 October 2021)
Data provider http://aviationweather.gov/metar/data/
 
METAR text: KOSH 251353Z 01016G24KT 10SM SCT014 BKN033 BKN040 07/04 A2999 RMK AO2 PK WND 01027/1321 SLP159 T00720044
Conditions at: KOSH (OSHKOSH , WI, US) observed 1353 UTC 25 October 2021
Temperature: 7.2°C (45°F)
Dewpoint: 4.4°C (40°F) [RH = 82%]
Pressure (altimeter): 29.99 inches Hg (1015.7 mb)
[Sea-level pressure: 1015.9 mb]
Winds: from the N (10 degrees) at 18 MPH (16 knots; 8.2 m/s)
gusting to 28 MPH (24 knots; 12.3 m/s)
Visibility: 10 or more miles (16+ km)
Ceiling: 3300 feet AGL
Clouds: scattered clouds at 1400 feet AGL
broken clouds at 3300 feet AGL
broken clouds at 4000 feet AGL
Weather: no significant weather observed at this time

METAR text: KOSH 251342Z 02016KT 10SM SCT014 BKN031 OVC038 07/04 A2999 RMK AO2 PK WND 01027/1321 T00720044
Conditions at: KOSH (OSHKOSH , WI, US) observed 1342 UTC 25 October 2021
Temperature: 7.2°C (45°F)
Dewpoint: 4.4°C (40°F) [RH = 82%]
Pressure (altimeter): 29.99 inches Hg (1015.7 mb)
Winds: from the NNE (20 degrees) at 18 MPH (16 knots; 8.2 m/s)
Visibility: 10 or more miles (16+ km)
Ceiling: 3100 feet AGL
Clouds: scattered clouds at 1400 feet AGL
broken clouds at 3100 feet AGL
overcast cloud deck at 3800 feet AGL
Weather: no significant weather observed at this time

METAR text: KOSH 251332Z 01015G24KT 10SM BKN014 BKN029 07/04 A2999 RMK AO2 PK WND 01027/1321 T00720044
Conditions at: KOSH (OSHKOSH , WI, US) observed 1332 UTC 25 October 2021
Temperature: 7.2°C (45°F)
Dewpoint: 4.4°C (40°F) [RH = 82%]
Pressure (altimeter): 29.99 inches Hg (1015.7 mb)
Winds: from the N (10 degrees) at 17 MPH (15 knots; 7.7 m/s)
gusting to 28 MPH (24 knots; 12.3 m/s)
Visibility: 10 or more miles (16+ km)
Ceiling: 1400 feet AGL
Clouds: broken clouds at 1400 feet AGL
broken clouds at 2900 feet AGL
Weather: no significant weather observed at this time